createdAt,value
2022-09-28T00:02:06.781Z,14.40
2022-09-28T00:08:09.235Z,14.30
2022-09-28T00:14:12.304Z,14.30
2022-09-28T00:20:14.707Z,14.30
2022-09-28T00:26:16.987Z,14.20
2022-09-28T00:32:19.329Z,14.30
2022-09-28T00:38:21.936Z,14.20
2022-09-28T00:44:27.010Z,14.10
2022-09-28T00:50:36.418Z,13.90
2022-09-28T00:56:43.299Z,14.60
2022-09-28T01:02:46.664Z,14.60
2022-09-28T01:08:52.546Z,14.90
2022-09-28T01:14:56.623Z,14.60
2022-09-28T01:21:11.428Z,14.60
2022-09-28T01:27:13.517Z,14.40
2022-09-28T01:33:28.418Z,14.40
2022-09-28T01:39:37.676Z,14.40
2022-09-28T01:45:46.825Z,14.40
2022-09-28T01:52:11.699Z,14.30
2022-09-28T01:58:29.309Z,14.30
2022-09-28T02:04:40.335Z,14.30
2022-09-28T02:10:50.571Z,14.10
2022-09-28T02:16:54.778Z,13.90
2022-09-28T02:23:03.980Z,14.20
2022-09-28T02:29:06.306Z,13.80
2022-09-28T02:35:11.049Z,13.70
2022-09-28T02:41:40.782Z,13.80
2022-09-28T02:47:45.782Z,13.60
2022-09-28T02:54:09.547Z,13.50
2022-09-28T03:00:15.590Z,13.40
2022-09-28T03:06:31.989Z,13.20
2022-09-28T03:12:35.157Z,13.30
2022-09-28T03:18:37.683Z,13.30
2022-09-28T03:24:40.146Z,13.40
2022-09-28T03:30:43.904Z,13.30
2022-09-28T03:36:46.528Z,13.40
2022-09-28T03:42:49.010Z,13.40
2022-09-28T03:48:51.362Z,13.60
2022-09-28T03:54:53.648Z,13.40
2022-09-28T04:00:55.959Z,13.10
2022-09-28T04:06:59.070Z,13.20
2022-09-28T04:13:02.103Z,13.10
2022-09-28T04:19:04.454Z,13.00
2022-09-28T04:25:34.450Z,13.10
2022-09-28T04:31:42.879Z,13.30
2022-09-28T04:37:45.549Z,13.30
2022-09-28T04:43:48.187Z,14.10
2022-09-28T04:49:51.158Z,17.40
2022-09-28T04:56:01.305Z,19.30
2022-09-28T05:02:04.614Z,20.40
2022-09-28T05:08:26.599Z,21.10
2022-09-28T05:14:28.926Z,18.60
2022-09-28T05:20:31.784Z,17.20
2022-09-28T05:26:34.466Z,16.40
2022-09-28T05:32:44.558Z,17.80
2022-09-28T05:38:54.396Z,21.20
2022-09-28T05:44:58.553Z,20.60
2022-09-28T05:51:00.766Z,22.50
2022-09-28T05:57:05.122Z,26.50
2022-09-28T06:03:10.937Z,27.50
2022-09-28T06:09:13.511Z,29.20
2022-09-28T06:15:39.433Z,29.40
2022-09-28T06:21:41.598Z,30.00
2022-09-28T06:27:44.209Z,31.60
2022-09-28T06:33:46.834Z,32.00
2022-09-28T06:39:50.409Z,31.60
2022-09-28T06:45:54.309Z,32.60
2022-09-28T06:52:15.452Z,33.40
2022-09-28T06:58:47.468Z,33.70
2022-09-28T07:04:50.041Z,34.90
2022-09-28T07:11:29.409Z,35.70
2022-09-28T07:18:02.391Z,34.40
2022-09-28T07:24:06.360Z,35.90
2022-09-28T07:30:12.009Z,35.40
2022-09-28T07:36:59.096Z,36.40
2022-09-28T07:43:05.670Z,36.70
2022-09-28T07:49:11.444Z,35.80
2022-09-28T07:55:30.623Z,35.60
2022-09-28T08:01:51.604Z,35.20
2022-09-28T08:07:58.081Z,35.30
2022-09-28T08:14:02.887Z,36.10
2022-09-28T08:20:56.645Z,36.50
2022-09-28T08:26:59.253Z,36.00
2022-09-28T08:33:04.539Z,36.30
2022-09-28T08:39:18.990Z,36.10
2022-09-28T08:45:59.539Z,36.20
2022-09-28T08:52:30.358Z,36.50
2022-09-28T08:58:44.100Z,36.20
2022-09-28T09:04:47.012Z,35.40
2022-09-28T09:11:29.630Z,34.70
2022-09-28T09:17:57.797Z,28.50
2022-09-28T09:24:42.512Z,26.20
2022-09-28T09:30:58.251Z,25.80
2022-09-28T09:37:28.878Z,26.40
2022-09-28T09:44:19.710Z,24.90
2022-09-28T09:50:34.036Z,24.10
2022-09-28T09:56:53.096Z,24.30
2022-09-28T10:03:33.399Z,23.70
2022-09-28T10:09:47.782Z,24.00
2022-09-28T10:16:15.967Z,24.60
2022-09-28T10:22:28.529Z,26.30
2022-09-28T10:29:03.922Z,25.60
2022-09-28T10:35:22.903Z,27.50
2022-09-28T10:41:50.332Z,30.60
2022-09-28T10:47:56.223Z,30.80
2022-09-28T10:54:02.775Z,32.40
2022-09-28T11:00:41.098Z,33.70
2022-09-28T11:13:02.259Z,34.50
2022-09-28T11:19:27.039Z,34.00
2022-09-28T11:25:31.552Z,34.60
2022-09-28T11:31:36.386Z,35.00
2022-09-28T11:37:43.547Z,35.50
2022-09-28T11:44:16.479Z,34.70
2022-09-28T11:50:35.982Z,30.90
2022-09-28T11:56:42.197Z,30.00
2022-09-28T12:02:56.722Z,28.50
2022-09-28T12:09:15.013Z,27.20
2022-09-28T12:16:06.262Z,26.50
2022-09-28T12:22:10.596Z,26.00
2022-09-28T12:28:30.765Z,25.60
2022-09-28T12:34:32.902Z,25.60
2022-09-28T12:40:34.957Z,25.40
2022-09-28T12:47:10.045Z,25.20
2022-09-28T12:53:22.151Z,25.10
2022-09-28T12:59:32.433Z,25.10
2022-09-28T13:05:49.422Z,25.10
2022-09-28T13:12:33.051Z,25.20
2022-09-28T13:18:44.195Z,25.00
2022-09-28T13:24:46.897Z,25.00
2022-09-28T13:30:51.287Z,25.00
2022-09-28T13:37:08.483Z,26.20
2022-09-28T13:43:28.305Z,25.50
2022-09-28T13:49:37.914Z,25.40
2022-09-28T13:56:06.435Z,25.50
2022-09-28T14:02:45.743Z,25.30
2022-09-28T14:09:09.282Z,24.90
2022-09-28T14:15:37.716Z,24.60
2022-09-28T14:21:42.716Z,24.60
2022-09-28T14:28:18.042Z,24.40
2022-09-28T14:34:27.167Z,24.30
2022-09-28T14:41:11.479Z,24.20
2022-09-28T14:47:38.762Z,24.10
2022-09-28T14:53:41.091Z,24.00
2022-09-28T14:59:46.523Z,23.80
2022-09-28T15:05:49.683Z,23.80
2022-09-28T15:11:55.751Z,23.70
2022-09-28T15:18:18.870Z,23.50
2022-09-28T15:24:35.252Z,23.30
2022-09-28T15:30:37.690Z,23.20
2022-09-28T15:36:46.724Z,23.00
2022-09-28T15:42:49.353Z,22.90
2022-09-28T15:48:59.667Z,22.60
2022-09-28T15:55:06.435Z,22.50
2022-09-28T16:01:23.557Z,22.30
2022-09-28T16:07:40.666Z,22.10
2022-09-28T16:14:06.681Z,21.80
2022-09-28T16:20:29.792Z,21.60
2022-09-28T16:26:40.843Z,21.40
2022-09-28T16:33:29.178Z,21.30
2022-09-28T16:39:31.139Z,21.10
2022-09-28T16:45:35.341Z,21.10
2022-09-28T16:51:40.404Z,20.90
2022-09-28T16:57:50.606Z,20.80
2022-09-28T17:03:52.789Z,20.70
2022-09-28T17:09:54.918Z,20.60
2022-09-28T17:16:01.864Z,20.40
2022-09-28T17:22:04.306Z,20.20
2022-09-28T17:28:06.855Z,20.00
2022-09-28T17:34:09.305Z,19.80
2022-09-28T17:40:24.109Z,19.60
2022-09-28T17:46:32.456Z,19.50
2022-09-28T17:52:34.731Z,19.60
2022-09-28T17:58:36.990Z,19.60
2022-09-28T18:04:51.799Z,19.60
2022-09-28T18:10:54.969Z,19.50
2022-09-28T18:16:57.109Z,19.40
2022-09-28T18:22:59.120Z,19.50
2022-09-28T18:29:01.298Z,19.50
2022-09-28T18:35:08.598Z,19.60
2022-09-28T18:41:16.193Z,19.60
2022-09-28T18:47:18.783Z,19.60
2022-09-28T18:53:20.880Z,19.70
2022-09-28T18:59:23.657Z,19.70
2022-09-28T19:05:26.966Z,19.70
2022-09-28T19:11:29.557Z,19.80
2022-09-28T19:17:33.353Z,19.90
2022-09-28T19:23:36.713Z,19.90
2022-09-28T19:29:38.955Z,20.00
2022-09-28T19:35:41.317Z,19.70
2022-09-28T19:41:48.306Z,19.60
2022-09-28T19:47:50.438Z,19.50
2022-09-28T19:53:52.595Z,19.40
2022-09-28T19:59:59.268Z,19.40
2022-09-28T20:06:06.864Z,19.30
2022-09-28T20:12:09.936Z,19.30
2022-09-28T20:18:12.652Z,19.30
2022-09-28T20:24:17.495Z,19.30
2022-09-28T20:30:19.516Z,19.10
2022-09-28T20:36:23.657Z,18.90
2022-09-28T20:42:28.088Z,18.70
2022-09-28T20:48:30.422Z,18.50
2022-09-28T20:54:32.804Z,18.40
2022-09-28T21:00:34.884Z,18.30
2022-09-28T21:06:39.067Z,18.10
2022-09-28T21:12:41.665Z,17.90
2022-09-28T21:18:43.893Z,17.90
2022-09-28T21:24:46.072Z,17.90
2022-09-28T21:30:51.651Z,17.80
2022-09-28T21:36:54.754Z,17.50
2022-09-28T21:42:57.020Z,17.50
2022-09-28T21:48:59.239Z,17.80
2022-09-28T21:55:01.329Z,17.70
2022-09-28T22:01:09.095Z,18.00
2022-09-28T22:07:11.226Z,18.10
2022-09-28T22:13:13.447Z,18.20
2022-09-28T22:19:15.741Z,18.20
2022-09-28T22:25:18.126Z,18.30
2022-09-28T22:31:23.435Z,18.40
2022-09-28T22:37:28.385Z,18.60
2022-09-28T22:43:31.248Z,18.70
2022-09-28T22:49:33.375Z,18.70
2022-09-28T22:55:35.652Z,18.80
2022-09-28T23:01:38.071Z,18.80
2022-09-28T23:07:40.412Z,18.90
2022-09-28T23:13:43.169Z,18.90
2022-09-28T23:19:45.407Z,18.90
2022-09-28T23:25:47.789Z,18.90
2022-09-28T23:31:49.927Z,18.90
2022-09-28T23:37:52.194Z,18.90
2022-09-28T23:43:54.429Z,19.00
2022-09-28T23:49:56.708Z,19.10
2022-09-28T23:55:58.918Z,19.10
